Time;durP1;ratioP1;P1;durP2;ratioP2;P2;SDS_P1;SDS_P2;PMS_P1;PMS_P2;Temp;Humidity;BMP_temperature;BMP_pressure;BME280_temperature;BME280_humidity;BME280_pressure;Samples;Min_cycle;Max_cycle;Signal;HPM_P1;HPM_P2
2022/05/21 00:00:41;;;;;;;17.75;12.95;;;11.80;99.90;;;;;;5048782;28;20032;-77
2022/05/21 00:03:11;;;;;;;16.00;11.93;;;11.70;99.90;;;;;;5068040;28;20051;-78
2022/05/21 00:05:41;;;;;;;17.42;12.00;;;11.70;99.90;;;;;;5034463;28;20491;-76
2022/05/21 00:08:08;;;;;;;18.38;11.18;;;11.70;99.90;;;;;;5046629;28;20041;-76
2022/05/21 00:10:37;;;;;;;15.85;11.35;;;11.70;99.90;;;;;;5067147;28;20012;-76
2022/05/21 00:13:04;;;;;;;16.70;10.98;;;11.80;99.90;;;;;;5067516;28;20041;-76
2022/05/21 00:15:33;;;;;;;12.65;9.18;;;11.80;99.90;;;;;;5034812;28;20029;-77
2022/05/21 00:18:03;;;;;;;15.70;11.05;;;11.90;99.90;;;;;;5036192;28;20037;-78
2022/05/21 00:20:48;;;;;;;18.77;11.18;;;11.90;99.90;;;;;;5037565;28;20028;-76
2022/05/21 00:23:17;;;;;;;14.82;9.68;;;12.00;99.90;;;;;;5034040;28;20028;-75
2022/05/21 00:25:45;;;;;;;15.35;11.68;;;12.00;99.90;;;;;;5049187;28;20024;-76
2022/05/21 00:28:12;;;;;;;16.13;10.93;;;12.10;99.90;;;;;;5064040;28;20024;-76
2022/05/21 00:30:41;;;;;;;13.30;10.07;;;12.10;99.90;;;;;;5049712;28;20035;-76
2022/05/21 00:33:08;;;;;;;12.80;10.27;;;12.20;99.90;;;;;;5036386;28;20032;-76
2022/05/21 00:35:35;;;;;;;12.93;10.10;;;12.20;99.90;;;;;;5066868;28;20352;-77
2022/05/21 00:38:02;;;;;;;12.43;9.95;;;12.20;99.90;;;;;;5016026;28;20024;-76
2022/05/21 00:40:29;;;;;;;14.60;10.48;;;12.20;99.90;;;;;;5065143;28;20028;-76
2022/05/21 00:42:56;;;;;;;14.52;9.90;;;12.30;99.90;;;;;;5066716;28;20637;-79
2022/05/21 00:45:24;;;;;;;15.20;10.90;;;12.30;99.90;;;;;;5050748;28;20029;-78
2022/05/21 00:47:53;;;;;;;14.48;9.77;;;12.30;99.90;;;;;;5047910;28;20039;-79
2022/05/21 00:50:24;;;;;;;13.52;10.45;;;12.30;99.90;;;;;;5031052;28;20487;-78
2022/05/21 00:52:52;;;;;;;15.83;9.87;;;12.30;99.90;;;;;;5054887;28;20024;-79
2022/05/21 00:55:23;;;;;;;14.32;11.07;;;12.30;99.90;;;;;;5049165;28;20040;-79
2022/05/21 01:00:46;;;;;;;16.00;10.93;;;12.40;99.90;;;;;;5062964;28;20028;-80
2022/05/21 01:03:15;;;;;;;13.50;11.13;;;12.50;99.90;;;;;;5039965;28;20480;-79
2022/05/21 01:05:45;;;;;;;15.05;9.88;;;12.50;99.90;;;;;;5050093;28;20396;-80
2022/05/21 01:08:12;;;;;;;14.98;12.57;;;12.50;99.90;;;;;;5047910;28;20529;-79
2022/05/21 01:10:45;;;;;;;19.60;12.68;;;12.50;99.90;;;;;;5031626;28;20024;-79
2022/05/21 01:13:15;;;;;;;16.50;12.63;;;12.60;99.90;;;;;;5036832;28;20032;-79
2022/05/21 01:15:49;;;;;;;15.38;12.65;;;12.60;99.90;;;;;;5048816;28;20060;-78
2022/05/21 01:18:15;;;;;;;17.42;13.57;;;12.60;99.90;;;;;;5047068;28;20033;-78
2022/05/21 01:20:48;;;;;;;13.55;12.02;;;12.70;99.90;;;;;;5036154;28;20033;-78
2022/05/21 01:23:19;;;;;;;18.33;12.57;;;12.60;99.90;;;;;;5014195;28;20656;-78
2022/05/21 01:25:48;;;;;;;15.80;12.48;;;12.60;99.90;;;;;;5016620;28;20028;-78
2022/05/21 01:28:17;;;;;;;18.75;13.80;;;12.60;99.90;;;;;;5042845;28;20024;-78
2022/05/21 01:30:57;;;;;;;16.83;13.20;;;12.60;99.90;;;;;;5048036;28;20033;-79
2022/05/21 01:33:29;;;;;;;17.40;13.43;;;12.60;99.90;;;;;;5067063;28;20020;-79
2022/05/21 01:35:58;;;;;;;16.67;12.98;;;12.60;99.90;;;;;;5033620;28;20017;-78
2022/05/21 01:38:26;;;;;;;16.55;13.57;;;12.60;99.90;;;;;;5025517;28;20036;-78
2022/05/21 01:40:52;;;;;;;15.48;13.02;;;12.60;99.90;;;;;;5052575;28;20035;-78
2022/05/21 01:46:05;;;;;;;15.38;11.40;;;12.60;99.90;;;;;;5048789;28;20037;-78
2022/05/21 01:48:36;;;;;;;18.48;12.48;;;12.70;99.90;;;;;;5029702;28;20044;-78
2022/05/21 01:51:05;;;;;;;17.08;13.02;;;12.70;99.90;;;;;;5031787;28;20741;-79
2022/05/21 01:53:32;;;;;;;15.75;13.35;;;12.70;99.90;;;;;;5019205;28;20032;-79
2022/05/21 01:55:58;;;;;;;16.42;11.73;;;12.70;99.90;;;;;;5045801;28;20025;-78
2022/05/21 01:58:26;;;;;;;15.38;11.05;;;12.70;99.90;;;;;;5064354;28;20031;-77
2022/05/21 02:00:54;;;;;;;15.18;11.18;;;12.70;99.90;;;;;;5046398;28;20021;-76
2022/05/21 02:03:21;;;;;;;19.10;12.48;;;12.70;99.90;;;;;;5035813;28;20036;-76
2022/05/21 02:05:48;;;;;;;15.55;12.02;;;12.80;99.90;;;;;;5047601;28;20031;-78
2022/05/21 02:08:16;;;;;;;16.10;11.45;;;12.80;99.90;;;;;;5028349;28;20040;-78
2022/05/21 02:10:44;;;;;;;15.02;12.75;;;12.80;99.90;;;;;;5049998;28;20048;-79
2022/05/21 02:13:16;;;;;;;18.02;13.52;;;12.80;99.90;;;;;;5048939;28;20594;-79
2022/05/21 02:15:43;;;;;;;18.58;13.40;;;12.90;99.90;;;;;;5033862;28;20059;-77
2022/05/21 02:18:14;;;;;;;16.55;12.57;;;12.90;99.90;;;;;;5061704;28;20024;-77
2022/05/21 02:20:43;;;;;;;14.30;11.10;;;12.90;99.90;;;;;;5029602;28;20056;-76
2022/05/21 02:23:12;;;;;;;16.38;11.10;;;12.90;99.90;;;;;;5044976;28;20028;-76
2022/05/21 02:25:40;;;;;;;15.23;11.63;;;12.90;99.90;;;;;;5047326;28;20020;-77
2022/05/21 02:28:09;;;;;;;16.05;12.18;;;12.90;99.90;;;;;;5044784;28;20472;-76
2022/05/21 02:30:37;;;;;;;19.30;13.20;;;12.90;99.90;;;;;;5062558;28;20037;-76
2022/05/21 02:33:03;;;;;;;13.23;10.98;;;12.90;99.90;;;;;;5029643;28;20472;-76
2022/05/21 02:35:30;;;;;;;17.85;12.68;;;13.00;99.90;;;;;;5047748;28;20021;-76
2022/05/21 02:40:42;;;;;;;16.48;12.10;;;13.00;99.90;;;;;;5030878;28;20037;-76
2022/05/21 02:43:08;;;;;;;19.73;12.85;;;13.00;99.90;;;;;;5047747;28;20030;-76
2022/05/21 02:45:35;;;;;;;18.85;13.27;;;13.00;99.90;;;;;;5046962;28;20368;-79
2022/05/21 02:48:01;;;;;;;14.98;11.73;;;13.00;99.90;;;;;;5013472;28;20052;-79
2022/05/21 02:50:32;;;;;;;18.30;11.70;;;13.00;99.90;;;;;;5051322;28;20515;-78
2022/05/21 02:53:04;;;;;;;14.98;11.15;;;13.00;99.90;;;;;;5037487;28;20048;-78
2022/05/21 02:55:30;;;;;;;19.65;10.90;;;13.00;99.90;;;;;;5035039;28;20040;-79
2022/05/21 02:57:57;;;;;;;14.85;11.43;;;13.10;99.90;;;;;;5045636;28;20035;-78
2022/05/21 03:00:28;;;;;;;15.32;10.13;;;13.10;99.90;;;;;;5046634;28;20396;-79
2022/05/21 03:02:55;;;;;;;21.55;13.23;;;13.10;99.90;;;;;;5061575;28;20021;-79
2022/05/21 03:05:22;;;;;;;18.17;11.98;;;13.10;99.90;;;;;;5017460;28;20384;-78
2022/05/21 03:07:51;;;;;;;17.90;11.65;;;13.20;99.90;;;;;;5063230;28;20032;-79
2022/05/21 03:10:22;;;;;;;17.58;11.57;;;13.20;99.90;;;;;;5050664;28;20031;-80
2022/05/21 03:12:59;;;;;;;20.05;11.30;;;13.20;99.90;;;;;;5047084;28;20048;-79
2022/05/21 03:15:37;;;;;;;15.20;11.40;;;13.20;99.90;;;;;;5045906;28;20044;-78
2022/05/21 03:18:07;;;;;;;18.65;12.02;;;13.20;99.90;;;;;;5061519;28;20418;-78
2022/05/21 03:20:34;;;;;;;19.63;12.40;;;13.20;99.90;;;;;;5032183;28;20028;-78
2022/05/21 03:23:00;;;;;;;14.20;10.13;;;13.20;99.90;;;;;;5031374;28;20056;-79
2022/05/21 03:25:27;;;;;;;14.75;9.73;;;13.10;99.90;;;;;;5049163;28;20033;-78
2022/05/21 03:27:54;;;;;;;13.95;10.48;;;13.10;99.90;;;;;;5027444;28;20040;-78
2022/05/21 03:30:24;;;;;;;18.23;11.27;;;13.20;99.90;;;;;;5031825;28;20491;-79
2022/05/21 03:32:51;;;;;;;17.20;11.48;;;13.10;99.90;;;;;;5044699;28;20781;-79
2022/05/21 03:35:18;;;;;;;15.52;10.65;;;13.20;99.90;;;;;;5017265;28;22737;-77
2022/05/21 03:37:45;;;;;;;13.95;9.13;;;13.20;99.90;;;;;;5042954;28;20032;-77
2022/05/21 03:40:16;;;;;;;15.18;10.77;;;13.20;99.90;;;;;;5063171;28;20043;-76
2022/05/21 03:42:43;;;;;;;14.10;8.98;;;13.20;99.90;;;;;;5045943;28;20484;-79
2022/05/21 03:45:10;;;;;;;17.55;11.18;;;13.20;99.90;;;;;;5052001;28;20036;-80
2022/05/21 03:47:38;;;;;;;14.25;9.85;;;13.10;99.90;;;;;;5044627;28;20016;-79
2022/05/21 03:50:05;;;;;;;19.58;10.25;;;13.00;99.90;;;;;;5017663;28;20029;-79
2022/05/21 03:52:33;;;;;;;19.80;11.45;;;13.00;99.90;;;;;;5064381;28;20044;-80
2022/05/21 03:54:59;;;;;;;20.48;10.25;;;12.90;99.90;;;;;;5062379;28;20025;-79
2022/05/21 03:57:27;;;;;;;17.13;11.13;;;12.90;99.90;;;;;;5044620;28;20024;-79
2022/05/21 03:59:57;;;;;;;19.85;11.95;;;12.90;99.90;;;;;;5046446;28;20055;-80
2022/05/21 04:02:26;;;;;;;18.98;11.55;;;12.90;99.90;;;;;;5046097;28;20032;-78
2022/05/21 04:04:56;;;;;;;14.48;8.93;;;13.00;99.90;;;;;;5063326;28;20029;-80
2022/05/21 04:07:23;;;;;;;17.60;10.25;;;13.00;99.90;;;;;;5027677;28;20036;-79
2022/05/21 04:09:50;;;;;;;19.10;10.40;;;13.10;99.90;;;;;;5063967;28;20529;-80
2022/05/21 04:12:17;;;;;;;18.58;10.13;;;13.20;99.90;;;;;;5047958;28;20425;-79
2022/05/21 04:14:43;;;;;;;19.17;11.05;;;13.30;99.90;;;;;;5048610;28;20055;-80
2022/05/21 04:17:13;;;;;;;16.23;10.02;;;13.30;99.90;;;;;;5028384;28;20028;-78
2022/05/21 04:19:42;;;;;;;18.02;10.85;;;13.40;99.90;;;;;;5049922;28;20040;-79
2022/05/21 04:22:11;;;;;;;17.70;9.77;;;13.40;99.90;;;;;;5067114;28;20033;-78
2022/05/21 04:24:39;;;;;;;15.35;9.20;;;13.40;99.90;;;;;;5033596;28;20033;-79
2022/05/21 04:27:09;;;;;;;23.02;9.98;;;13.40;99.90;;;;;;5066232;28;20031;-77
2022/05/21 04:29:36;;;;;;;25.02;9.60;;;13.50;99.90;;;;;;5053037;28;20375;-81
2022/05/21 04:32:04;;;;;;;14.13;7.88;;;13.50;99.90;;;;;;5068389;28;20028;-81
2022/05/21 04:34:32;;;;;;;22.85;9.40;;;13.50;99.90;;;;;;5050363;28;20681;-81
2022/05/21 04:37:00;;;;;;;16.52;8.57;;;13.60;99.90;;;;;;5036887;28;20043;-80
2022/05/21 04:39:28;;;;;;;10.40;6.53;;;13.60;99.90;;;;;;5070914;28;20023;-80
2022/05/21 04:42:00;;;;;;;12.48;7.78;;;13.60;99.90;;;;;;5065951;28;20051;-78
2022/05/21 04:44:31;;;;;;;19.85;8.77;;;13.60;99.90;;;;;;5027844;28;20028;-78
2022/05/21 04:46:58;;;;;;;14.55;7.32;;;13.60;99.90;;;;;;5047563;28;20025;-79
2022/05/21 04:49:25;;;;;;;16.58;8.15;;;13.60;99.90;;;;;;5066974;28;22780;-78
2022/05/21 04:51:51;;;;;;;17.58;8.38;;;13.60;99.90;;;;;;5031296;28;20384;-78
2022/05/21 04:54:18;;;;;;;13.88;6.57;;;13.70;99.90;;;;;;5051292;28;20031;-81
2022/05/21 04:56:44;;;;;;;21.52;8.25;;;13.70;99.90;;;;;;5030754;28;20044;-80
2022/05/21 04:59:11;;;;;;;14.00;6.10;;;13.70;99.90;;;;;;5049202;28;20036;-80
2022/05/21 05:01:39;;;;;;;20.58;6.78;;;13.80;99.90;;;;;;5016776;28;20511;-82
2022/05/21 05:04:10;;;;;;;16.83;5.85;;;13.80;99.90;;;;;;5068958;28;20032;-81
2022/05/21 05:06:38;;;;;;;13.52;5.43;;;13.90;99.90;;;;;;5052609;28;20475;-81
2022/05/21 05:09:09;;;;;;;13.02;5.55;;;13.90;99.90;;;;;;5057405;28;20503;-81
2022/05/21 05:11:35;;;;;;;18.27;7.85;;;14.00;99.90;;;;;;5029284;28;20023;-81
2022/05/21 05:14:04;;;;;;;17.27;7.47;;;14.00;99.90;;;;;;5045145;28;20045;-81
2022/05/21 05:16:31;;;;;;;17.13;6.60;;;14.00;99.90;;;;;;5053546;28;20048;-81
2022/05/21 05:18:58;;;;;;;17.35;6.70;;;14.10;99.90;;;;;;5077448;28;20036;-78
2022/05/21 05:21:24;;;;;;;14.85;5.30;;;14.20;99.90;;;;;;5040678;28;20044;-78
2022/05/21 05:23:54;;;;;;;21.23;6.78;;;14.20;99.90;;;;;;5075818;28;20067;-78
2022/05/21 05:26:23;;;;;;;20.98;6.95;;;14.30;99.90;;;;;;5077977;28;20033;-75
2022/05/21 05:28:51;;;;;;;17.10;5.43;;;14.30;99.90;;;;;;5056824;28;20108;-79
2022/05/21 05:31:19;;;;;;;13.57;5.10;;;14.30;99.90;;;;;;5039181;28;20033;-78
2022/05/21 05:33:46;;;;;;;15.00;4.80;;;14.30;99.90;;;;;;5047991;28;20032;-74
2022/05/21 05:36:17;;;;;;;18.95;5.30;;;14.30;99.90;;;;;;5048146;28;20028;-74
2022/05/21 05:38:44;;;;;;;14.68;4.82;;;14.30;99.90;;;;;;5068327;28;20044;-75
2022/05/21 05:41:12;;;;;;;14.27;4.90;;;14.30;99.90;;;;;;5046786;28;20376;-78
2022/05/21 05:43:38;;;;;;;20.92;5.75;;;14.40;99.90;;;;;;5034022;28;20592;-75
2022/05/21 05:46:04;;;;;;;20.90;5.97;;;14.40;99.90;;;;;;5031508;28;20490;-76
2022/05/21 05:48:31;;;;;;;20.08;6.07;;;14.40;99.90;;;;;;5029375;28;20036;-79
2022/05/21 05:50:59;;;;;;;18.02;5.10;;;14.40;99.90;;;;;;5047262;28;20025;-78
2022/05/21 05:53:26;;;;;;;16.20;5.57;;;14.40;99.90;;;;;;5049079;28;20448;-78
2022/05/21 05:55:52;;;;;;;16.95;5.18;;;14.60;99.90;;;;;;5048201;28;20032;-80
2022/05/21 06:01:07;;;;;;;15.27;4.65;;;14.60;99.90;;;;;;5014982;28;20051;-79
2022/05/21 06:03:34;;;;;;;12.07;4.13;;;14.70;99.90;;;;;;5049443;28;20017;-75
2022/05/21 06:06:01;;;;;;;15.00;4.68;;;14.80;99.90;;;;;;5047446;28;20028;-76
2022/05/21 06:08:28;;;;;;;16.08;5.05;;;14.90;99.90;;;;;;5028982;28;20400;-76
2022/05/21 06:10:54;;;;;;;15.20;4.60;;;15.00;99.90;;;;;;5047538;28;20032;-79
2022/05/21 06:13:20;;;;;;;16.85;5.47;;;15.10;99.90;;;;;;5031383;28;20052;-78
2022/05/21 06:15:47;;;;;;;15.40;3.25;;;15.20;99.90;;;;;;5047195;28;20029;-76
2022/05/21 06:18:20;;;;;;;23.90;5.32;;;15.20;99.90;;;;;;5027086;28;20415;-77
2022/05/21 06:20:50;;;;;;;17.40;3.67;;;15.30;99.90;;;;;;5034044;28;20023;-75
2022/05/21 06:23:20;;;;;;;20.75;5.45;;;15.30;99.90;;;;;;5047702;28;20021;-78
2022/05/21 06:25:47;;;;;;;13.38;3.47;;;15.30;99.90;;;;;;5020247;28;20036;-78
2022/05/21 06:28:14;;;;;;;15.93;3.65;;;15.40;99.90;;;;;;5063203;28;20036;-78
2022/05/21 06:30:41;;;;;;;14.07;2.72;;;15.40;99.90;;;;;;5066370;28;20040;-78
2022/05/21 06:33:22;;;;;;;9.65;2.05;;;15.60;99.90;;;;;;5034978;28;20905;-78
2022/05/21 06:36:01;;;;;;;10.63;1.95;;;15.60;99.90;;;;;;5035278;28;20025;-81
2022/05/21 06:38:27;;;;;;;15.10;2.28;;;15.70;99.90;;;;;;5050391;28;20503;-79
2022/05/21 06:40:54;;;;;;;9.05;2.00;;;15.90;99.90;;;;;;5033085;28;20028;-78
2022/05/21 06:43:22;;;;;;;11.40;1.80;;;15.90;99.90;;;;;;5029810;28;20033;-78
2022/05/21 06:45:48;;;;;;;12.32;1.95;;;15.90;99.90;;;;;;5050246;28;20484;-75
2022/05/21 06:48:17;;;;;;;10.77;1.40;;;15.90;99.90;;;;;;5028362;28;20041;-76
2022/05/21 06:50:44;;;;;;;11.52;1.63;;;16.10;99.90;;;;;;5063538;28;21065;-78
2022/05/21 06:53:11;;;;;;;14.27;1.85;;;16.20;99.90;;;;;;5016815;28;20025;-76
2022/05/21 06:55:41;;;;;;;10.32;1.50;;;16.30;99.90;;;;;;5045783;28;20045;-76
2022/05/21 06:58:09;;;;;;;6.72;1.27;;;16.30;99.90;;;;;;5026596;28;20072;-76
2022/05/21 07:00:43;;;;;;;8.63;1.30;;;16.40;99.90;;;;;;5029977;28;20376;-76
2022/05/21 07:03:14;;;;;;;14.98;2.15;;;16.50;99.90;;;;;;5044581;28;20037;-76
2022/05/21 07:08:30;;;;;;;11.70;1.60;;;16.40;99.90;;;;;;5014608;28;20024;-76
2022/05/21 07:10:57;;;;;;;11.88;1.73;;;16.30;99.90;;;;;;5047582;28;20049;-76
2022/05/21 07:13:24;;;;;;;10.85;1.52;;;16.30;99.90;;;;;;5046099;28;20049;-77
2022/05/21 07:15:54;;;;;;;10.80;1.65;;;16.30;99.90;;;;;;5032728;28;20411;-78
2022/05/21 07:18:22;;;;;;;9.75;1.38;;;16.50;99.90;;;;;;5044354;28;20071;-77
2022/05/21 07:20:50;;;;;;;10.93;1.58;;;16.70;99.90;;;;;;5057080;28;20494;-76
2022/05/21 07:23:19;;;;;;;8.32;1.40;;;16.90;99.90;;;;;;5063404;28;20050;-77
2022/05/21 07:25:52;;;;;;;12.75;1.50;;;16.90;99.90;;;;;;5064329;28;20025;-77
2022/05/21 07:28:19;;;;;;;15.35;2.05;;;17.00;99.90;;;;;;5040161;28;20372;-77
2022/05/21 07:30:48;;;;;;;8.85;1.42;;;17.10;99.90;;;;;;5045320;28;20047;-77
2022/05/21 07:33:18;;;;;;;9.20;1.42;;;17.30;99.90;;;;;;5048629;28;20028;-77
2022/05/21 07:35:46;;;;;;;7.95;1.10;;;17.60;99.90;;;;;;5047465;28;20040;-76
2022/05/21 07:38:15;;;;;;;5.82;0.98;;;17.70;99.90;;;;;;5043439;28;20377;-76
2022/05/21 07:40:47;;;;;;;8.50;1.35;;;17.80;99.90;;;;;;5065876;28;20357;-76
2022/05/21 07:43:27;;;;;;;8.63;1.25;;;17.90;99.90;;;;;;5049775;28;20027;-77
2022/05/21 07:45:58;;;;;;;11.60;1.15;;;18.10;99.90;;;;;;5049957;28;20456;-76
2022/05/21 07:48:25;;;;;;;7.53;1.42;;;18.40;99.90;;;;;;5061238;28;20059;-77
2022/05/21 07:50:55;;;;;;;8.25;1.60;;;18.60;99.90;;;;;;5063175;28;20380;-77
2022/05/21 07:53:32;;;;;;;7.45;1.10;;;18.50;99.90;;;;;;5064394;28;20352;-77
2022/05/21 07:55:59;;;;;;;9.27;1.48;;;18.50;99.90;;;;;;5047128;28;20511;-77
2022/05/21 07:58:31;;;;;;;8.43;1.35;;;18.60;99.90;;;;;;5030092;28;20051;-77
2022/05/21 08:01:04;;;;;;;9.18;1.52;;;18.60;99.90;;;;;;5048038;28;20526;-77
2022/05/21 08:03:32;;;;;;;10.00;1.33;;;18.40;99.90;;;;;;5049349;28;20016;-77
2022/05/21 08:06:02;;;;;;;8.35;1.17;;;18.50;99.90;;;;;;5066815;28;21520;-77
2022/05/21 08:08:29;;;;;;;9.13;1.30;;;18.70;99.90;;;;;;5047178;28;20036;-77
2022/05/21 08:10:59;;;;;;;7.10;1.00;;;18.90;99.90;;;;;;5050286;28;20038;-77
2022/05/21 08:13:26;;;;;;;9.20;1.05;;;19.00;99.90;;;;;;5064874;28;20527;-77
2022/05/21 08:15:56;;;;;;;7.13;1.05;;;18.90;99.90;;;;;;5060549;28;20834;-77
2022/05/21 08:18:31;;;;;;;8.95;1.20;;;18.90;99.90;;;;;;5042918;28;20036;-77
2022/05/21 08:21:01;;;;;;;7.25;1.55;;;18.90;99.90;;;;;;5045997;28;20041;-77
2022/05/21 08:29:08;;;;;;;14.18;1.83;;;18.80;99.90;;;;;;5048043;28;20028;-77
2022/05/21 08:31:42;;;;;;;10.45;1.20;;;18.90;99.90;;;;;;5064405;28;20040;-77
2022/05/21 08:34:16;;;;;;;10.90;1.50;;;18.90;99.90;;;;;;5049217;28;20395;-77
2022/05/21 08:37:01;;;;;;;7.90;1.23;;;18.90;99.90;;;;;;5061395;28;20409;-76
2022/05/21 08:39:32;;;;;;;10.15;1.63;;;18.90;99.90;;;;;;5050965;28;20530;-77
2022/05/21 08:42:13;;;;;;;5.00;0.97;;;19.00;99.90;;;;;;5066025;28;20039;-77
2022/05/21 08:44:51;;;;;;;7.70;1.45;;;19.20;99.90;;;;;;5066453;28;20062;-77
2022/05/21 08:47:35;;;;;;;6.63;1.23;;;19.50;99.90;;;;;;5063787;28;20037;-77
2022/05/21 08:50:09;;;;;;;4.72;0.88;;;19.60;99.90;;;;;;5045765;28;20020;-77
2022/05/21 08:53:02;;;;;;;5.47;1.05;;;19.50;99.90;;;;;;5065306;28;20020;-76
2022/05/21 08:55:31;;;;;;;;;;;19.50;99.90;;;;;;5048552;28;20032;-77
2022/05/21 08:58:07;;;;;;;6.10;0.98;;;19.50;99.90;;;;;;5032083;28;19912;-76
2022/05/21 09:00:42;;;;;;;6.53;0.95;;;19.60;99.90;;;;;;5049505;28;20015;-76
2022/05/21 09:03:11;;;;;;;6.40;1.02;;;19.80;99.90;;;;;;5066821;28;20070;-76
2022/05/21 09:05:40;;;;;;;5.07;0.77;;;20.00;99.90;;;;;;5054060;28;20028;-75
2022/05/21 09:08:25;;;;;;;6.28;0.90;;;20.10;99.90;;;;;;5061265;28;20028;-76
2022/05/21 09:11:01;;;;;;;7.93;1.40;;;20.30;99.90;;;;;;5055496;28;20020;-76
2022/05/21 09:13:39;;;;;;;5.70;0.93;;;20.40;99.90;;;;;;5029536;28;20984;-76
2022/05/21 09:18:50;;;;;;;7.82;1.35;;;20.60;99.90;;;;;;5052191;28;20044;-78
2022/05/21 09:21:20;;;;;;;5.47;1.17;;;20.80;99.90;;;;;;5049582;28;20506;-79
2022/05/21 09:24:02;;;;;;;5.40;0.73;;;20.90;99.90;;;;;;5043312;28;20028;-79
2022/05/21 09:26:46;;;;;;;5.70;1.40;;;21.00;99.90;;;;;;5059130;28;20039;-79
2022/05/21 09:29:28;;;;;;;8.82;1.10;;;21.20;99.90;;;;;;5069222;28;20029;-79
2022/05/21 09:31:56;;;;;;;6.23;0.97;;;21.20;99.90;;;;;;5067947;28;20032;-79
2022/05/21 09:34:24;;;;;;;11.25;1.20;;;21.20;99.90;;;;;;5035381;28;20052;-78
2022/05/21 09:36:51;;;;;;;7.20;1.30;;;21.00;99.90;;;;;;5047186;28;20484;-79
2022/05/21 09:39:33;;;;;;;5.88;1.17;;;21.00;99.90;;;;;;5049415;28;20033;-79
2022/05/21 09:45:32;;;;;;;8.00;1.05;;;21.10;99.50;;;;;;5069678;28;20424;-79
2022/05/21 09:48:10;;;;;;;6.25;0.73;;;21.50;99.20;;;;;;5047768;28;20082;-80
2022/05/21 09:50:52;;;;;;;7.72;1.08;;;21.60;98.70;;;;;;5066800;28;20028;-80
2022/05/21 09:53:33;;;;;;;7.03;1.02;;;21.70;98.20;;;;;;5064194;28;20041;-76
2022/05/21 09:56:24;;;;;;;9.02;1.10;;;21.50;98.30;;;;;;5062539;28;20048;-76
2022/05/21 09:59:35;;;;;;;6.95;1.17;;;21.20;98.30;;;;;;5031729;28;20044;-76
2022/05/21 10:02:19;;;;;;;8.20;1.40;;;20.70;98.60;;;;;;5062491;28;20021;-76
2022/05/21 10:04:54;;;;;;;10.35;1.27;;;20.30;99.10;;;;;;5063869;28;20024;-76
2022/05/21 10:11:00;;;;;;;6.63;1.13;;;20.40;99.10;;;;;;5051379;28;20028;-77
2022/05/21 10:13:53;;;;;;;5.60;0.83;;;20.70;99.30;;;;;;5063677;28;20033;-80
2022/05/21 10:16:38;;;;;;;8.63;1.50;;;20.90;99.00;;;;;;5040763;28;20060;-81
2022/05/21 10:19:23;;;;;;;11.13;1.98;;;21.20;98.80;;;;;;5066965;28;20039;-81
2022/05/21 10:22:12;;;;;;;9.32;1.52;;;21.30;98.60;;;;;;5055126;28;20107;-78
2022/05/21 10:25:04;;;;;;;7.07;1.17;;;21.70;98.40;;;;;;5049326;28;20024;-81
2022/05/21 10:27:55;;;;;;;8.73;1.80;;;21.80;97.50;;;;;;5060935;28;20021;-77
2022/05/21 10:30:51;;;;;;;7.97;1.45;;;21.90;97.50;;;;;;5048059;28;20063;-82
2022/05/21 10:34:03;;;;;;;7.45;1.30;;;22.10;97.20;;;;;;5045865;28;20043;-77
2022/05/21 10:37:01;;;;;;;6.43;1.27;;;22.30;96.70;;;;;;5062174;28;20368;-82
2022/05/21 10:39:38;;;;;;;7.55;0.90;;;22.40;96.50;;;;;;5068252;28;20043;-82
2022/05/21 10:42:23;;;;;;;6.70;1.20;;;22.50;95.90;;;;;;5065253;28;20047;-82
2022/05/21 10:45:17;;;;;;;6.63;1.27;;;22.60;95.30;;;;;;5066655;28;20032;-83
2022/05/21 10:48:02;;;;;;;8.77;1.23;;;22.60;94.00;;;;;;5047982;28;20040;-82
2022/05/21 10:50:46;;;;;;;6.05;1.13;;;22.60;94.20;;;;;;5050735;28;20400;-82
2022/05/21 10:53:34;;;;;;;5.72;1.00;;;22.80;94.40;;;;;;5068659;28;20037;-82
2022/05/21 10:56:38;;;;;;;5.25;0.82;;;23.00;94.10;;;;;;5070939;28;20029;-82
2022/05/21 10:59:33;;;;;;;5.28;0.82;;;23.10;93.60;;;;;;5070704;28;20040;-82
2022/05/21 11:02:21;;;;;;;10.00;0.98;;;23.20;92.80;;;;;;5075757;28;20024;-83
2022/05/21 11:05:04;;;;;;;6.07;0.75;;;23.10;93.00;;;;;;5063433;28;20029;-83
2022/05/21 11:08:07;;;;;;;6.93;1.30;;;23.10;93.00;;;;;;5060150;28;20024;-82
2022/05/21 11:10:48;;;;;;;7.63;1.20;;;23.00;92.10;;;;;;5061370;28;20036;-82
2022/05/21 11:13:26;;;;;;;8.05;1.73;;;22.90;92.50;;;;;;5086477;28;20029;-83
2022/05/21 11:16:01;;;;;;;6.85;1.00;;;22.80;92.50;;;;;;5057774;28;20041;-82
2022/05/21 11:19:00;;;;;;;5.22;1.00;;;22.60;92.50;;;;;;5077980;28;20384;-82
2022/05/21 11:21:34;;;;;;;5.97;0.90;;;22.40;92.60;;;;;;5013136;28;20040;-82
2022/05/21 11:24:10;;;;;;;6.22;1.27;;;22.20;92.80;;;;;;5069552;28;20020;-81
2022/05/21 11:27:24;;;;;;;6.57;1.17;;;22.10;92.90;;;;;;5065431;28;20032;-81
2022/05/21 11:30:00;;;;;;;7.50;1.25;;;21.90;93.10;;;;;;4999005;28;20054;-82
2022/05/21 11:38:26;;;;;;;7.07;1.20;;;21.70;93.50;;;;;;5068239;28;20040;-82
2022/05/21 11:41:27;;;;;;;6.45;0.77;;;21.90;93.40;;;;;;5038866;28;20033;-81
2022/05/21 11:47:12;;;;;;;7.45;1.13;;;22.90;92.70;;;;;;5068072;28;20472;-81
2022/05/21 11:50:07;;;;;;;6.75;1.73;;;23.60;91.90;;;;;;5044579;28;20040;-82
2022/05/21 11:52:37;;;;;;;5.78;0.90;;;23.80;91.00;;;;;;5067323;28;20028;-82
2022/05/21 11:55:17;;;;;;;4.70;0.93;;;23.80;91.20;;;;;;5068619;28;20028;-82
2022/05/21 11:57:58;;;;;;;7.10;1.75;;;24.00;91.00;;;;;;5048459;28;20470;-81
2022/05/21 12:00:25;;;;;;;6.15;0.80;;;24.20;90.50;;;;;;5041631;28;20036;-81
2022/05/21 12:02:57;;;;;;;7.53;0.98;;;24.60;89.70;;;;;;5038667;28;20021;-80
2022/05/21 12:05:37;;;;;;;9.68;1.27;;;24.70;88.70;;;;;;5068547;28;20415;-85
2022/05/21 12:08:25;;;;;;;5.15;1.05;;;24.80;87.60;;;;;;5050191;28;20041;-81
2022/05/21 12:10:56;;;;;;;6.97;1.20;;;25.10;86.00;;;;;;5051773;28;20017;-82
2022/05/21 12:13:40;;;;;;;4.25;0.95;;;25.20;84.50;;;;;;5066169;28;20026;-80
2022/05/21 12:16:22;;;;;;;5.22;0.85;;;25.70;83.40;;;;;;5050699;28;20041;-81
2022/05/21 12:19:15;;;;;;;12.18;1.42;;;25.90;81.10;;;;;;5024073;28;20475;-84
2022/05/21 12:22:04;;;;;;;6.05;1.33;;;25.90;78.50;;;;;;5066503;28;20344;-81
2022/05/21 12:24:43;;;;;;;5.40;0.90;;;25.40;79.40;;;;;;5058630;28;20384;-78
2022/05/21 12:27:27;;;;;;;4.53;0.90;;;25.20;79.50;;;;;;5045614;28;20024;-78
2022/05/21 12:30:03;;;;;;;8.27;1.75;;;25.50;78.90;;;;;;5064854;28;20041;-78
2022/05/21 12:32:34;;;;;;;6.30;1.00;;;25.40;77.80;;;;;;5067354;28;20040;-78
2022/05/21 12:35:25;;;;;;;6.65;0.80;;;25.00;77.20;;;;;;5065118;28;20051;-78
2022/05/21 12:38:32;;;;;;;5.55;0.77;;;24.70;78.20;;;;;;5062195;28;20036;-77
2022/05/21 12:41:00;;;;;;;5.43;1.00;;;25.20;77.70;;;;;;5064973;28;20027;-77
2022/05/21 12:43:27;;;;;;;3.85;0.70;;;25.20;77.30;;;;;;5066908;28;20029;-78
2022/05/21 12:45:57;;;;;;;5.50;1.33;;;24.90;77.50;;;;;;5048595;28;20040;-77
2022/05/21 12:48:49;;;;;;;5.97;0.95;;;24.60;77.50;;;;;;5064153;28;20368;-77
2022/05/21 12:51:46;;;;;;;4.97;0.70;;;24.30;78.40;;;;;;5067423;28;20365;-77
2022/05/21 12:54:22;;;;;;;6.07;1.00;;;25.60;78.10;;;;;;5065117;28;20460;-77
2022/05/21 12:56:50;;;;;;;4.43;0.70;;;27.10;76.10;;;;;;5030597;28;20502;-77
2022/05/21 12:59:29;;;;;;;5.88;1.08;;;28.10;72.50;;;;;;5048216;28;20509;-78
2022/05/21 13:01:58;;;;;;;3.75;1.00;;;28.40;70.10;;;;;;5047371;28;20037;-78
2022/05/21 13:04:59;;;;;;;7.60;1.10;;;28.20;69.20;;;;;;5026653;28;20028;-78
2022/05/21 13:07:36;;;;;;;5.70;1.15;;;28.80;66.70;;;;;;5065640;28;20048;-78
2022/05/21 13:10:31;;;;;;;6.82;2.00;;;28.60;66.80;;;;;;5043359;28;20039;-78
2022/05/21 13:13:13;;;;;;;6.20;1.13;;;28.10;67.50;;;;;;5068985;28;20478;-78
2022/05/21 13:15:59;;;;;;;7.45;1.20;;;27.30;68.40;;;;;;5035362;28;20044;-78
2022/05/21 13:18:58;;;;;;;8.93;1.58;;;26.50;68.60;;;;;;5048238;28;20016;-78
2022/05/21 13:21:54;;;;;;;5.20;0.93;;;25.80;70.00;;;;;;5037766;28;20467;-78
2022/05/21 13:24:59;;;;;;;7.85;1.15;;;25.50;71.60;;;;;;5047768;28;20032;-79
2022/05/21 13:27:28;;;;;;;7.95;1.65;;;25.40;72.30;;;;;;5050167;28;20043;-79
2022/05/21 13:30:47;;;;;;;6.78;0.95;;;25.80;71.80;;;;;;5063725;28;20063;-80
2022/05/21 13:33:42;;;;;;;5.90;0.85;;;25.60;70.90;;;;;;4971497;28;20038;-80
2022/05/21 13:36:24;;;;;;;8.55;1.50;;;25.60;70.40;;;;;;4981733;28;21353;-84
2022/05/21 13:38:56;;;;;;;8.93;1.33;;;25.40;71.30;;;;;;4981587;28;20034;-82
2022/05/21 13:41:39;;;;;;;4.05;0.70;;;25.30;70.30;;;;;;4994442;28;20103;-80
2022/05/21 13:44:15;;;;;;;4.90;1.13;;;25.30;70.90;;;;;;5031183;28;20364;-79
2022/05/21 13:46:48;;;;;;;5.55;0.80;;;25.30;70.10;;;;;;5048127;28;20087;-80
2022/05/21 13:49:33;;;;;;;5.90;1.13;;;25.30;69.80;;;;;;5040582;28;20032;-81